Time;durP1;ratioP1;P1;durP2;ratioP2;P2;SDS_P1;SDS_P2;PMS_P1;PMS_P2;Temp;Humidity;BMP_temperature;BMP_pressure;BME280_temperature;BME280_humidity;BME280_pressure;Samples;Min_cycle;Max_cycle;Signal;HPM_P1;HPM_P2
2022/03/23 04:56:03;;;;;;;19.52;12.13;;;;;;;9.73;33.82;102089.91;5606556;31;80206;-54
2022/03/23 04:59:06;;;;;;;18.35;11.45;;;;;;;9.73;33.82;102089.91;5583995;32;33413;-55
2022/03/23 05:02:08;;;;;;;18.70;11.85;;;;;;;9.24;34.78;102083.09;5583780;32;34212;-56
2022/03/23 05:05:12;;;;;;;18.12;12.00;;;;;;;9.32;34.09;102083.56;5583584;32;33534;-55
2022/03/23 05:08:14;;;;;;;22.33;13.55;;;;;;;9.49;33.64;102089.06;5576947;32;34194;-55
2022/03/23 05:11:17;;;;;;;19.95;12.45;;;;;;;9.60;33.89;102088.28;5563638;32;33519;-55
2022/03/23 05:14:19;;;;;;;22.83;12.70;;;;;;;9.70;33.30;102092.22;5563310;32;33189;-55
2022/03/23 05:17:21;;;;;;;22.90;12.75;;;;;;;10.19;32.17;102092.78;5563718;32;33443;-55
2022/03/23 05:20:27;;;;;;;22.23;13.93;;;;;;;10.50;31.48;102100.47;5564210;32;33627;-55
2022/03/23 05:23:29;;;;;;;19.80;13.55;;;;;;;10.88;30.00;102093.66;5563810;32;33651;-55
2022/03/23 05:26:32;;;;;;;20.12;13.60;;;;;;;11.02;30.61;102105.72;5564809;32;33597;-55
2022/03/23 05:29:37;;;;;;;23.20;14.27;;;;;;;11.30;29.70;102112.16;5579987;32;33252;-56
2022/03/23 05:32:40;;;;;;;21.73;13.88;;;;;;;11.37;29.75;102114.66;5564954;32;33627;-55
2022/03/23 05:35:42;;;;;;;25.33;14.18;;;;;;;11.49;29.64;102102.81;5573533;31;33423;-55
2022/03/23 05:38:45;;;;;;;23.33;13.73;;;;;;;11.60;29.81;102106.47;5577808;31;33529;-55
2022/03/23 05:41:47;;;;;;;22.55;13.95;;;;;;;11.87;28.90;102111.19;5574646;32;33788;-55
2022/03/23 05:44:50;;;;;;;19.92;13.32;;;;;;;11.75;29.50;102114.75;5571160;31;33575;-56
2022/03/23 05:47:53;;;;;;;20.70;13.50;;;;;;;11.71;29.83;102110.91;5563843;32;33681;-55
2022/03/23 05:50:55;;;;;;;22.00;13.38;;;;;;;11.73;30.74;102111.50;5572956;32;33630;-56
2022/03/23 05:53:58;;;;;;;18.17;12.98;;;;;;;12.01;28.57;102112.47;5582883;31;34250;-55
2022/03/23 05:57:03;;;;;;;20.15;12.63;;;;;;;12.11;28.58;102117.16;5573770;32;34373;-55
2022/03/23 06:00:07;;;;;;;17.77;12.68;;;;;;;12.14;28.16;102122.06;5579562;32;33731;-56
2022/03/23 06:03:12;;;;;;;20.27;13.70;;;;;;;12.30;27.63;102123.88;5581716;32;35111;-55
2022/03/23 06:06:15;;;;;;;21.58;13.45;;;;;;;12.37;27.38;102119.13;5574347;32;33571;-55
2022/03/23 06:09:17;;;;;;;19.50;13.13;;;;;;;12.49;27.31;102119.03;5568312;32;33753;-55
2022/03/23 06:12:20;;;;;;;21.30;13.27;;;;;;;12.51;27.27;102105.31;5568048;32;33619;-55
2022/03/23 06:15:24;;;;;;;23.23;13.48;;;;;;;12.61;27.06;102113.50;5567332;32;33822;-55
2022/03/23 06:18:26;;;;;;;20.52;12.45;;;;;;;12.60;26.97;102111.87;5551838;32;33815;-55
2022/03/23 06:21:29;;;;;;;23.90;13.00;;;;;;;12.61;27.52;102114.31;5569332;32;34327;-55
2022/03/23 06:24:31;;;;;;;18.05;13.35;;;;;;;12.68;26.91;102106.06;5568999;32;33781;-55
2022/03/23 06:27:34;;;;;;;18.73;13.27;;;;;;;12.76;26.77;102113.69;5568920;32;34204;-55
2022/03/23 06:30:37;;;;;;;16.62;12.90;;;;;;;12.79;26.46;102110.50;5568956;32;33242;-56
2022/03/23 06:33:39;;;;;;;20.75;13.57;;;;;;;12.90;26.79;102117.59;5557012;32;33641;-55
2022/03/23 06:36:41;;;;;;;20.40;13.73;;;;;;;12.94;26.34;102109.84;5549395;32;34068;-56
2022/03/23 06:39:43;;;;;;;18.17;13.18;;;;;;;12.79;26.76;102109.69;5555884;32;33663;-55
2022/03/23 06:42:45;;;;;;;28.52;14.70;;;;;;;12.83;26.91;102113.50;5566381;32;33611;-55
2022/03/23 06:45:48;;;;;;;24.73;13.82;;;;;;;12.88;26.95;102117.06;5567211;32;33902;-55
2022/03/23 06:48:50;;;;;;;21.70;14.25;;;;;;;12.82;27.66;102112.69;5558955;32;33685;-55
2022/03/23 06:51:52;;;;;;;24.50;15.30;;;;;;;12.81;27.97;102112.91;5556142;32;33335;-55
2022/03/23 06:54:56;;;;;;;23.45;15.35;;;;;;;12.90;27.26;102120.28;5562728;32;33623;-56
2022/03/23 06:57:58;;;;;;;26.20;15.82;;;;;;;12.93;27.31;102110.91;5567128;32;33552;-55
2022/03/23 07:01:00;;;;;;;28.33;15.95;;;;;;;12.96;27.41;102109.59;5567056;32;33252;-56
2022/03/23 07:04:03;;;;;;;26.35;15.35;;;;;;;13.01;27.15;102106.94;5566449;32;34230;-55
2022/03/23 07:07:06;;;;;;;25.67;16.05;;;;;;;13.09;26.99;102110.00;5567853;32;33812;-55
2022/03/23 07:10:09;;;;;;;29.80;17.12;;;;;;;13.12;27.40;102109.50;5568120;31;34380;-55
2022/03/23 07:13:13;;;;;;;24.08;16.50;;;;;;;13.16;27.88;102113.28;5566508;32;33680;-55
2022/03/23 07:16:16;;;;;;;25.17;17.48;;;;;;;13.15;27.49;102103.59;5567365;32;33706;-55
2022/03/23 07:19:18;;;;;;;26.02;17.35;;;;;;;13.34;27.16;102108.63;5559747;32;33817;-56
2022/03/23 07:22:20;;;;;;;26.23;16.58;;;;;;;13.42;27.16;102116.25;5560008;32;33749;-56
2022/03/23 07:25:23;;;;;;;24.33;16.17;;;;;;;13.49;27.12;102113.34;5567463;32;33705;-55
2022/03/23 07:28:25;;;;;;;26.12;17.55;;;;;;;13.53;27.22;102120.63;5568520;32;34072;-56
2022/03/23 07:31:29;;;;;;;29.00;17.48;;;;;;;13.58;27.09;102109.09;5562537;32;33860;-55
2022/03/23 07:34:31;;;;;;;28.60;17.80;;;;;;;13.48;27.51;102109.03;5564949;32;33694;-55
2022/03/23 07:37:34;;;;;;;29.15;17.75;;;;;;;13.62;27.09;102113.72;5555329;32;33705;-56
2022/03/23 07:40:36;;;;;;;27.55;17.98;;;;;;;13.59;27.47;102108.03;5558354;32;33681;-56
2022/03/23 07:43:39;;;;;;;32.50;19.17;;;;;;;13.71;27.15;102105.97;5568081;32;33644;-55
2022/03/23 07:46:41;;;;;;;31.37;17.92;;;;;;;13.65;27.31;102098.09;5567585;32;34168;-56
2022/03/23 07:49:44;;;;;;;26.05;17.42;;;;;;;13.69;27.40;102096.50;5565917;32;34280;-55
2022/03/23 07:52:46;;;;;;;31.65;17.02;;;;;;;13.74;27.17;102099.22;5567400;32;33731;-56
2022/03/23 07:55:48;;;;;;;31.80;18.33;;;;;;;13.80;27.45;102104.41;5564036;32;33697;-55
2022/03/23 07:58:51;;;;;;;26.12;18.42;;;;;;;13.72;27.31;102104.87;5548328;32;33190;-55
2022/03/23 08:01:53;;;;;;;29.77;17.52;;;;;;;13.72;26.98;102101.37;5548251;32;34382;-55
2022/03/23 08:04:56;;;;;;;26.67;17.55;;;;;;;13.84;27.16;102107.38;5564555;32;34379;-56
2022/03/23 08:07:58;;;;;;;26.35;16.77;;;;;;;13.80;27.42;102104.41;5565780;32;33243;-56
2022/03/23 08:11:00;;;;;;;29.15;17.42;;;;;;;13.95;27.17;102098.31;5566707;32;33715;-56
2022/03/23 08:14:03;;;;;;;23.92;17.10;;;;;;;13.99;26.92;102102.09;5548726;32;33794;-55
2022/03/23 08:17:06;;;;;;;23.12;16.70;;;;;;;14.02;26.70;102104.28;5559537;32;33170;-55
2022/03/23 08:23:32;;;;;;;30.37;16.85;;;;;;;14.20;26.90;102107.59;5567871;32;33993;-55
2022/03/23 08:26:35;;;;;;;26.77;16.48;;;;;;;14.31;26.70;102104.69;5560589;32;33213;-56
2022/03/23 08:29:37;;;;;;;26.77;16.40;;;;;;;14.54;26.24;102103.47;5566201;32;33507;-55
2022/03/23 08:32:39;;;;;;;25.42;15.77;;;;;;;14.69;26.08;102108.09;5567383;32;33975;-55
2022/03/23 08:35:42;;;;;;;19.80;15.20;;;;;;;14.75;26.24;102092.72;5564798;32;34335;-55
2022/03/23 08:38:44;;;;;;;30.20;16.40;;;;;;;14.86;25.86;102098.97;5566606;32;33620;-55
2022/03/23 08:41:46;;;;;;;33.95;17.77;;;;;;;14.93;25.98;102088.72;5558146;32;33481;-55
2022/03/23 08:44:48;;;;;;;24.27;16.17;;;;;;;15.01;25.89;102089.00;5567245;32;34035;-55
2022/03/23 08:47:51;;;;;;;22.00;16.08;;;;;;;14.99;25.77;102083.03;5565963;32;34010;-55
2022/03/23 08:50:54;;;;;;;21.58;17.10;;;;;;;15.11;25.62;102088.22;5567104;32;33621;-56
2022/03/23 08:53:56;;;;;;;27.00;16.50;;;;;;;15.14;25.46;102078.75;5560079;32;33353;-56
2022/03/23 08:56:59;;;;;;;28.62;16.17;;;;;;;15.17;25.41;102086.31;5566724;32;33371;-55
2022/03/23 09:00:05;;;;;;;23.95;16.15;;;;;;;15.21;25.84;102088.22;5563572;32;32113;-55
2022/03/23 09:03:08;;;;;;;22.55;16.05;;;;;;;15.21;25.26;102080.09;5564314;32;34391;-55
2022/03/23 09:06:11;;;;;;;24.65;15.73;;;;;;;15.23;25.68;102083.34;5565447;32;33208;-55
2022/03/23 09:09:14;;;;;;;22.90;15.73;;;;;;;15.45;25.28;102084.97;5557948;32;33699;-56
2022/03/23 09:12:16;;;;;;;24.55;16.45;;;;;;;15.48;26.22;102079.81;5560641;32;33688;-55
2022/03/23 09:15:19;;;;;;;27.08;16.02;;;;;;;15.60;24.95;102073.34;5565593;32;33360;-56
2022/03/23 09:18:21;;;;;;;31.58;15.88;;;;;;;15.60;25.36;102065.22;5560118;32;34304;-56
2022/03/23 09:21:23;;;;;;;23.83;14.77;;;;;;;15.68;25.11;102076.31;5559577;32;33676;-55
2022/03/23 09:24:27;;;;;;;18.67;14.75;;;;;;;15.78;25.27;102072.78;5561288;32;32180;-55
2022/03/23 09:27:32;;;;;;;21.77;14.60;;;;;;;15.95;25.11;102069.75;5561132;32;33688;-55
2022/03/23 09:30:35;;;;;;;20.95;14.73;;;;;;;15.92;24.46;102060.31;5560711;32;33213;-55
2022/03/23 09:33:37;;;;;;;21.30;13.65;;;;;;;15.99;24.62;102060.00;5566270;32;33737;-55
2022/03/23 09:40:00;;;;;;;43.45;13.07;;;;;;;16.17;23.97;102064.03;5560218;32;33686;-55
2022/03/23 09:43:05;;;;;;;32.15;14.38;;;;;;;16.14;24.25;102057.25;5568383;32;33929;-55
2022/03/23 09:46:07;;;;;;;29.08;13.85;;;;;;;16.17;24.43;102055.91;5554514;32;33561;-56
2022/03/23 09:49:10;;;;;;;20.10;12.50;;;;;;;16.17;23.53;102047.78;5553561;32;33698;-55
2022/03/23 09:52:13;;;;;;;19.05;11.52;;;;;;;16.23;23.79;102052.09;5562976;32;33222;-55
2022/03/23 09:55:15;;;;;;;25.60;13.00;;;;;;;16.40;23.35;102052.53;5565853;32;33668;-56
2022/03/23 09:58:18;;;;;;;18.10;11.98;;;;;;;16.39;22.62;102053.66;5562692;32;33732;-55
2022/03/23 10:01:29;;;;;;;35.00;14.20;;;;;;;16.28;23.05;102045.84;5566899;32;33846;-55
2022/03/23 10:05:06;;;;;;;21.58;12.23;;;;;;;16.29;23.52;102042.88;5552334;32;34063;-55
2022/03/23 10:08:38;;;;;;;20.33;12.98;;;;;;;16.47;23.95;102046.03;5552777;32;33784;-56
2022/03/23 10:12:08;;;;;;;35.90;13.68;;;;;;;16.55;23.63;102035.41;5556189;32;34091;-55
2022/03/23 10:15:52;;;;;;;32.20;13.43;;;;;;;16.68;23.56;102031.25;5557852;32;33790;-56
2022/03/23 10:18:56;;;;;;;24.95;12.37;;;;;;;16.69;23.05;102030.19;5559210;32;34349;-55
2022/03/23 10:22:08;;;;;;;17.95;11.80;;;;;;;16.63;22.79;102034.03;5561859;32;34439;-55
2022/03/23 10:25:12;;;;;;;19.90;12.02;;;;;;;16.73;22.48;102020.41;5552124;32;34298;-55
2022/03/23 10:28:17;;;;;;;21.48;11.90;;;;;;;16.83;22.12;102022.28;5563815;32;34222;-55
2022/03/23 10:31:22;;;;;;;21.62;11.95;;;;;;;16.91;22.33;102010.81;5550212;32;33952;-55
2022/03/23 10:34:24;;;;;;;22.73;11.68;;;;;;;16.93;21.76;102010.56;5558325;32;33673;-55
2022/03/23 10:37:29;;;;;;;17.60;11.35;;;;;;;16.93;22.07;102007.84;5564846;32;33640;-55
2022/03/23 10:40:31;;;;;;;21.15;12.48;;;;;;;17.04;22.47;102001.25;5561189;32;33885;-56
2022/03/23 10:43:37;;;;;;;23.95;12.20;;;;;;;17.01;22.28;101997.19;5559038;32;33472;-55
2022/03/23 10:46:40;;;;;;;16.35;11.05;;;;;;;16.96;21.89;101991.81;5558261;32;34395;-56
2022/03/23 10:49:43;;;;;;;18.80;11.45;;;;;;;17.02;22.31;101985.28;5550393;32;33832;-56
2022/03/23 10:52:53;;;;;;;16.58;11.63;;;;;;;17.03;21.89;101983.38;5565015;32;34734;-55
2022/03/23 10:55:56;;;;;;;17.00;10.40;;;;;;;17.10;21.38;101981.12;5561636;32;33692;-55
2022/03/23 10:59:22;;;;;;;17.98;10.48;;;;;;;17.07;21.10;101979.81;5553256;32;33676;-56
2022/03/23 11:02:25;;;;;;;21.62;11.73;;;;;;;17.23;21.42;101972.34;5563092;32;33700;-55
2022/03/23 11:05:31;;;;;;;17.23;10.18;;;;;;;17.34;21.25;101968.41;5558402;32;33541;-55
2022/03/23 11:08:34;;;;;;;14.82;10.23;;;;;;;17.30;20.49;101963.88;5556028;31;34228;-56
2022/03/23 11:18:36;;;;;;;17.12;10.30;;;;;;;17.36;21.09;101946.47;5560138;32;33539;-56
2022/03/23 11:22:12;;;;;;;20.08;11.32;;;;;;;17.46;21.07;101951.78;5550659;32;33113;-56
2022/03/23 11:25:15;;;;;;;20.55;11.15;;;;;;;17.52;20.37;101938.97;5553007;32;33260;-56
2022/03/23 11:28:18;;;;;;;13.88;9.90;;;;;;;17.64;20.02;101933.12;5551704;32;33736;-55
2022/03/23 11:31:20;;;;;;;20.98;9.18;;;;;;;17.63;20.36;101929.63;5567471;32;32145;-56
2022/03/23 11:34:25;;;;;;;13.98;8.00;;;;;;;17.80;21.44;101926.44;5567863;32;34014;-55
2022/03/23 11:37:29;;;;;;;11.88;7.12;;;;;;;17.84;19.15;101916.62;5565768;32;33695;-55
2022/03/23 11:40:32;;;;;;;11.80;7.05;;;;;;;17.89;19.16;101921.19;5568299;32;33774;-55
2022/03/23 11:43:34;;;;;;;15.82;8.00;;;;;;;17.90;19.61;101915.47;5568360;32;34039;-55
2022/03/23 11:46:53;;;;;;;15.80;7.53;;;;;;;17.86;18.33;101910.91;5567128;32;33301;-55
2022/03/23 11:50:16;;;;;;;13.13;7.97;;;;;;;17.87;19.74;101907.09;5565579;32;33627;-55
2022/03/23 11:54:09;;;;;;;16.83;9.82;;;;;;;17.92;18.84;101899.72;5560563;32;34954;-56
2022/03/23 11:57:11;;;;;;;12.57;9.30;;;;;;;18.07;19.50;101906.81;5520253;31;33241;-55
2022/03/23 12:00:18;;;;;;;14.68;8.10;;;;;;;18.04;19.12;101899.25;5566222;32;33456;-56
2022/03/23 12:04:02;;;;;;;20.35;7.45;;;;;;;18.05;18.47;101898.19;5564511;32;33688;-55
2022/03/23 12:07:10;;;;;;;10.75;7.50;;;;;;;17.96;17.78;101883.66;5564550;32;33530;-55
2022/03/23 12:10:43;;;;;;;13.95;7.62;;;;;;;17.91;17.97;101881.00;5559213;32;33663;-56
2022/03/23 12:13:55;;;;;;;13.45;7.85;;;;;;;17.91;17.82;101865.50;5553416;32;34001;-56
2022/03/23 12:16:57;;;;;;;9.65;6.72;;;;;;;17.98;18.19;101857.00;5556678;32;34066;-55
2022/03/23 12:20:40;;;;;;;11.10;6.95;;;;;;;18.02;17.53;101855.34;5559363;32;33353;-56
2022/03/23 12:23:53;;;;;;;11.88;7.25;;;;;;;18.06;18.73;101848.22;5561080;32;33729;-56
2022/03/23 12:26:59;;;;;;;11.07;7.25;;;;;;;18.26;19.37;101856.03;5561754;32;33605;-56
2022/03/23 12:30:13;;;;;;;11.90;7.62;;;;;;;18.25;17.87;101848.22;5567190;32;34348;-56
2022/03/23 12:33:21;;;;;;;11.55;7.28;;;;;;;18.24;18.78;101838.44;5564205;32;33747;-56
2022/03/23 12:36:56;;;;;;;13.32;7.57;;;;;;;18.17;17.67;101841.53;5565974;32;34434;-56
2022/03/23 12:39:53;;;;;;;11.32;7.28;;;;;;;18.24;17.58;101833.81;5561931;32;33770;-56
2022/03/23 12:42:56;;;;;;;11.98;7.22;;;;;;;18.27;17.19;101833.22;5566448;32;33605;-56
2022/03/23 12:45:58;;;;;;;9.27;6.10;;;;;;;18.14;17.07;101831.25;5562179;32;33627;-56
2022/03/23 12:59:34;;;;;;;14.15;6.30;;;;;;;18.38;16.73;101812.16;5560026;32;34452;-56
2022/03/23 13:02:37;;;;;;;9.32;6.12;;;;;;;18.51;16.79;101813.28;5548746;32;33863;-56
2022/03/23 13:05:55;;;;;;;9.80;6.70;;;;;;;18.45;16.83;101812.56;5554746;32;33678;-57
2022/03/23 13:08:57;;;;;;;14.10;6.43;;;;;;;18.56;16.44;101807.75;5566536;32;33158;-56
2022/03/23 13:12:00;;;;;;;13.73;6.60;;;;;;;18.58;16.54;101802.03;5567174;32;33863;-56
2022/03/23 13:15:16;;;;;;;10.30;6.95;;;;;;;18.54;16.15;101799.09;5567229;32;34098;-56
2022/03/23 13:18:25;;;;;;;10.48;6.82;;;;;;;18.46;16.42;101783.50;5567924;32;33217;-56
2022/03/23 13:21:30;;;;;;;12.10;6.15;;;;;;;18.46;16.10;101781.59;5569009;32;33242;-56
2022/03/23 13:24:33;;;;;;;11.17;6.33;;;;;;;18.68;15.72;101780.13;5569622;32;33961;-56
2022/03/23 13:27:37;;;;;;;10.52;6.50;;;;;;;18.63;16.08;101780.19;5567527;32;34390;-56
2022/03/23 13:30:43;;;;;;;14.73;6.12;;;;;;;18.65;15.41;101776.09;5564970;32;33679;-56
2022/03/23 13:33:48;;;;;;;9.88;6.05;;;;;;;18.70;15.58;101778.69;5561806;32;34360;-56
2022/03/23 13:36:53;;;;;;;11.20;6.43;;;;;;;18.71;15.43;101771.38;5569251;32;33388;-56
2022/03/23 13:39:55;;;;;;;13.75;7.50;;;;;;;18.63;16.69;101767.41;5569048;32;34353;-56
2022/03/23 13:46:23;;;;;;;11.80;7.03;;;;;;;18.67;15.27;101754.84;5561827;32;34415;-57
2022/03/23 13:49:25;;;;;;;12.80;6.62;;;;;;;18.68;15.65;101748.31;5568161;32;34241;-56
2022/03/23 13:52:28;;;;;;;9.68;6.10;;;;;;;18.78;16.10;101748.16;5568285;32;34001;-56
2022/03/23 13:55:31;;;;;;;8.40;5.97;;;;;;;18.83;15.42;101746.44;5568290;32;33387;-56
2022/03/23 13:58:33;;;;;;;15.00;7.00;;;;;;;18.74;14.92;101736.28;5568428;32;33682;-56
2022/03/23 14:01:48;;;;;;;14.15;6.53;;;;;;;18.77;15.15;101732.97;5567932;32;33767;-57
2022/03/23 14:04:51;;;;;;;9.13;6.05;;;;;;;18.80;14.93;101722.59;5567160;32;33343;-56
2022/03/23 14:07:57;;;;;;;11.63;5.57;;;;;;;18.82;15.25;101731.25;5566756;31;33602;-56
2022/03/23 14:10:59;;;;;;;10.07;6.20;;;;;;;18.86;15.11;101719.47;5568802;32;33703;-56
2022/03/23 14:14:02;;;;;;;10.05;5.55;;;;;;;18.88;15.26;101713.75;5567770;32;33408;-56
2022/03/23 14:17:13;;;;;;;12.70;5.78;;;;;;;18.89;15.39;101715.34;5567098;32;34058;-56
2022/03/23 14:20:15;;;;;;;13.10;6.62;;;;;;;18.89;15.47;101712.63;5567408;32;34361;-56
2022/03/23 14:23:24;;;;;;;13.45;6.12;;;;;;;18.97;15.14;101710.00;5568495;32;33602;-56
2022/03/23 14:26:36;;;;;;;10.32;6.20;;;;;;;18.96;16.15;101711.09;5566782;32;33736;-56
2022/03/23 14:29:41;;;;;;;9.82;5.75;;;;;;;18.95;15.55;101698.63;5568872;32;33381;-56
2022/03/23 14:32:54;;;;;;;12.63;5.97;;;;;;;18.98;15.53;101694.50;5568743;32;33706;-56
2022/03/23 14:35:57;;;;;;;12.32;6.20;;;;;;;18.98;16.04;101678.19;5567162;32;34372;-56
2022/03/23 14:38:59;;;;;;;9.60;6.40;;;;;;;19.00;14.80;101686.84;5568378;32;33343;-56
2022/03/23 14:42:08;;;;;;;10.32;6.45;;;;;;;18.93;14.97;101679.09;5567681;32;33601;-56
2022/03/23 14:45:43;;;;;;;11.50;5.55;;;;;;;19.00;15.31;101670.53;5567736;32;34637;-56
2022/03/23 14:49:22;;;;;;;8.60;6.07;;;;;;;19.00;15.04;101671.31;5566541;32;33877;-56
2022/03/23 14:52:26;;;;;;;11.57;6.28;;;;;;;19.07;14.88;101670.09;5534804;31;34670;-56
2022/03/23 14:55:29;;;;;;;9.13;5.78;;;;;;;19.02;15.25;101663.69;5568364;32;34428;-56
2022/03/23 14:58:59;;;;;;;11.55;5.80;;;;;;;19.03;14.94;101661.75;5568192;32;34251;-56
2022/03/23 15:02:01;;;;;;;12.27;6.10;;;;;;;19.07;15.28;101653.81;5565069;32;33686;-56
2022/03/23 15:05:04;;;;;;;12.05;6.18;;;;;;;19.10;15.48;101645.84;5567212;32;34360;-56
2022/03/23 15:14:49;;;;;;;12.50;6.07;;;;;;;19.02;15.54;101643.84;5567893;32;34002;-56
2022/03/23 15:17:54;;;;;;;10.55;5.93;;;;;;;18.98;15.08;101640.94;5568436;32;33818;-56
2022/03/23 15:20:56;;;;;;;9.18;5.50;;;;;;;18.99;15.13;101636.31;5567410;32;33271;-56
2022/03/23 15:23:59;;;;;;;8.95;6.00;;;;;;;19.01;15.91;101639.53;5567150;32;33725;-56
2022/03/23 15:27:02;;;;;;;10.55;6.03;;;;;;;19.01;15.49;101640.34;5567229;32;33883;-57
2022/03/23 15:30:08;;;;;;;15.45;6.28;;;;;;;19.05;16.26;101626.16;5568083;32;33735;-56
2022/03/23 15:33:14;;;;;;;13.13;5.80;;;;;;;19.09;22.81;101633.37;5567239;32;33735;-56
2022/03/23 15:36:18;;;;;;;15.20;6.32;;;;;;;19.06;17.37;101622.31;5567732;32;34250;-56
2022/03/23 15:39:20;;;;;;;9.50;5.87;;;;;;;19.10;17.38;101626.81;5566970;32;33477;-56
2022/03/23 15:45:44;;;;;;;13.05;6.25;;;;;;;18.93;14.60;101626.66;5568239;32;33672;-56
2022/03/23 15:48:50;;;;;;;10.38;6.10;;;;;;;18.91;14.68;101628.91;5567261;32;33748;-56
2022/03/23 15:51:53;;;;;;;10.25;5.95;;;;;;;18.92;15.10;101616.91;5567576;32;34339;-56
2022/03/23 15:54:56;;;;;;;9.82;6.20;;;;;;;18.92;15.00;101614.19;5567249;32;33644;-56
2022/03/23 15:58:00;;;;;;;11.63;6.32;;;;;;;18.89;14.97;101620.25;5568608;32;33710;-56
2022/03/23 16:01:02;;;;;;;7.37;5.15;;;;;;;18.86;15.50;101615.41;5566488;32;34428;-56
2022/03/23 16:04:05;;;;;;;9.80;5.95;;;;;;;18.81;15.32;101615.50;5555364;32;33757;-56
2022/03/23 16:07:07;;;;;;;11.30;5.90;;;;;;;18.83;15.35;101610.59;5563937;32;33026;-56
2022/03/23 16:10:10;;;;;;;12.07;5.93;;;;;;;18.81;15.38;101601.94;5564254;32;33622;-56
2022/03/23 16:13:12;;;;;;;13.05;5.93;;;;;;;18.77;15.56;101608.00;5564960;31;33409;-56
2022/03/23 16:16:16;;;;;;;13.35;5.95;;;;;;;18.72;15.61;101604.59;5568773;32;33696;-56
2022/03/23 16:19:19;;;;;;;13.93;5.97;;;;;;;18.66;15.62;101605.78;5566823;32;33674;-56
2022/03/23 16:22:21;;;;;;;9.48;6.12;;;;;;;18.61;15.70;101605.88;5567926;32;34014;-56
2022/03/23 16:25:24;;;;;;;10.57;6.28;;;;;;;18.54;15.71;101609.00;5568208;32;33684;-56
2022/03/23 16:28:27;;;;;;;9.50;6.55;;;;;;;18.48;15.89;101610.22;5567704;32;33497;-56
2022/03/23 16:31:29;;;;;;;10.50;5.97;;;;;;;18.42;15.98;101609.53;5568344;32;34310;-57
2022/03/23 16:34:32;;;;;;;10.50;6.15;;;;;;;18.36;16.42;101609.94;5568594;32;34438;-56
2022/03/23 16:37:36;;;;;;;12.10;6.70;;;;;;;18.31;16.58;101613.56;5566559;32;33425;-56
2022/03/23 16:40:39;;;;;;;18.85;6.47;;;;;;;18.25;16.89;101606.63;5562747;32;33410;-56
2022/03/23 16:43:41;;;;;;;13.85;7.47;;;;;;;18.19;17.06;101608.62;5565471;32;33630;-56
2022/03/23 16:46:46;;;;;;;12.75;7.18;;;;;;;18.12;17.34;101605.53;5567621;32;33736;-56
